sensor_id;sensor_type;location;lat;lon;timestamp;P1;durP1;ratioP1;P2;durP2;ratioP2
39176;SDS011;24904;52.208;21.192;2023-05-27T00:04:19;12.50;;;3.70;;
39176;SDS011;24904;52.208;21.192;2023-05-27T00:09:24;8.60;;;3.60;;
39176;SDS011;24904;52.208;21.192;2023-05-27T00:14:29;13.10;;;4.60;;
39176;SDS011;24904;52.208;21.192;2023-05-27T00:19:34;14.10;;;3.50;;
39176;SDS011;24904;52.208;21.192;2023-05-27T00:24:40;18.30;;;3.70;;
39176;SDS011;24904;52.208;21.192;2023-05-27T00:29:45;13.10;;;3.70;;
39176;SDS011;24904;52.208;21.192;2023-05-27T00:34:50;17.20;;;4.00;;
39176;SDS011;24904;52.208;21.192;2023-05-27T00:44:37;14.30;;;3.30;;
39176;SDS011;24904;52.208;21.192;2023-05-27T00:49:40;13.20;;;3.60;;
39176;SDS011;24904;52.208;21.192;2023-05-27T00:54:44;11.40;;;3.60;;
39176;SDS011;24904;52.208;21.192;2023-05-27T00:59:47;9.80;;;4.00;;
39176;SDS011;24904;52.208;21.192;2023-05-27T01:04:50;11.40;;;3.60;;
39176;SDS011;24904;52.208;21.192;2023-05-27T01:09:55;11.20;;;3.60;;
39176;SDS011;24904;52.208;21.192;2023-05-27T01:15:02;13.50;;;3.60;;
39176;SDS011;24904;52.208;21.192;2023-05-27T01:20:07;16.90;;;4.00;;
39176;SDS011;24904;52.208;21.192;2023-05-27T01:25:14;13.60;;;3.70;;
39176;SDS011;24904;52.208;21.192;2023-05-27T01:30:18;15.90;;;4.10;;
39176;SDS011;24904;52.208;21.192;2023-05-27T01:35:24;16.40;;;4.30;;
39176;SDS011;24904;52.208;21.192;2023-05-27T01:40:31;12.10;;;4.20;;
39176;SDS011;24904;52.208;21.192;2023-05-27T01:45:37;11.70;;;3.10;;
39176;SDS011;24904;52.208;21.192;2023-05-27T01:50:40;14.10;;;3.90;;
39176;SDS011;24904;52.208;21.192;2023-05-27T01:55:43;14.40;;;4.10;;
39176;SDS011;24904;52.208;21.192;2023-05-27T02:00:47;17.70;;;3.80;;
39176;SDS011;24904;52.208;21.192;2023-05-27T02:05:51;12.90;;;4.20;;
39176;SDS011;24904;52.208;21.192;2023-05-27T02:10:54;13.70;;;4.10;;
39176;SDS011;24904;52.208;21.192;2023-05-27T02:15:57;11.30;;;3.40;;
39176;SDS011;24904;52.208;21.192;2023-05-27T02:21:01;12.60;;;3.20;;
39176;SDS011;24904;52.208;21.192;2023-05-27T02:26:07;15.50;;;3.80;;
39176;SDS011;24904;52.208;21.192;2023-05-27T02:31:10;13.90;;;3.60;;
39176;SDS011;24904;52.208;21.192;2023-05-27T02:36:13;13.70;;;3.40;;
39176;SDS011;24904;52.208;21.192;2023-05-27T02:41:17;15.00;;;3.60;;
39176;SDS011;24904;52.208;21.192;2023-05-27T02:46:21;12.70;;;3.60;;
39176;SDS011;24904;52.208;21.192;2023-05-27T02:51:24;14.00;;;3.70;;
39176;SDS011;24904;52.208;21.192;2023-05-27T02:56:27;16.00;;;4.00;;
39176;SDS011;24904;52.208;21.192;2023-05-27T03:01:30;14.00;;;3.80;;
39176;SDS011;24904;52.208;21.192;2023-05-27T03:06:33;13.40;;;4.30;;
39176;SDS011;24904;52.208;21.192;2023-05-27T03:11:37;16.00;;;3.60;;
39176;SDS011;24904;52.208;21.192;2023-05-27T03:16:40;14.20;;;3.20;;
39176;SDS011;24904;52.208;21.192;2023-05-27T03:21:43;13.80;;;4.00;;
39176;SDS011;24904;52.208;21.192;2023-05-27T03:26:48;9.50;;;3.30;;
39176;SDS011;24904;52.208;21.192;2023-05-27T03:31:51;14.90;;;3.80;;
39176;SDS011;24904;52.208;21.192;2023-05-27T03:36:55;10.70;;;3.40;;
39176;SDS011;24904;52.208;21.192;2023-05-27T03:42:07;14.10;;;3.60;;
39176;SDS011;24904;52.208;21.192;2023-05-27T03:47:11;12.50;;;3.50;;
39176;SDS011;24904;52.208;21.192;2023-05-27T03:52:14;15.60;;;3.30;;
39176;SDS011;24904;52.208;21.192;2023-05-27T03:57:17;17.60;;;3.80;;
39176;SDS011;24904;52.208;21.192;2023-05-27T04:02:20;13.00;;;4.40;;
39176;SDS011;24904;52.208;21.192;2023-05-27T04:07:23;13.40;;;3.90;;
39176;SDS011;24904;52.208;21.192;2023-05-27T04:12:28;11.10;;;3.70;;
39176;SDS011;24904;52.208;21.192;2023-05-27T04:17:31;13.30;;;3.40;;
39176;SDS011;24904;52.208;21.192;2023-05-27T04:22:34;12.40;;;2.70;;
39176;SDS011;24904;52.208;21.192;2023-05-27T04:27:37;10.00;;;3.30;;
39176;SDS011;24904;52.208;21.192;2023-05-27T04:32:40;9.60;;;3.40;;
39176;SDS011;24904;52.208;21.192;2023-05-27T04:37:43;17.00;;;3.30;;
39176;SDS011;24904;52.208;21.192;2023-05-27T04:42:49;13.50;;;3.50;;
39176;SDS011;24904;52.208;21.192;2023-05-27T04:47:53;10.80;;;3.70;;
39176;SDS011;24904;52.208;21.192;2023-05-27T04:52:56;9.00;;;3.00;;
39176;SDS011;24904;52.208;21.192;2023-05-27T04:58:00;13.50;;;3.20;;
39176;SDS011;24904;52.208;21.192;2023-05-27T05:03:05;16.40;;;3.20;;
39176;SDS011;24904;52.208;21.192;2023-05-27T05:08:09;11.30;;;3.30;;
39176;SDS011;24904;52.208;21.192;2023-05-27T05:13:12;14.30;;;3.20;;
39176;SDS011;24904;52.208;21.192;2023-05-27T05:18:17;9.40;;;2.50;;
39176;SDS011;24904;52.208;21.192;2023-05-27T05:23:20;9.10;;;2.80;;
39176;SDS011;24904;52.208;21.192;2023-05-27T05:28:24;11.70;;;2.60;;
39176;SDS011;24904;52.208;21.192;2023-05-27T05:33:27;10.90;;;3.00;;
39176;SDS011;24904;52.208;21.192;2023-05-27T05:38:30;8.50;;;2.80;;
39176;SDS011;24904;52.208;21.192;2023-05-27T05:43:33;10.80;;;2.90;;
39176;SDS011;24904;52.208;21.192;2023-05-27T05:48:36;7.70;;;2.60;;
39176;SDS011;24904;52.208;21.192;2023-05-27T05:53:41;10.20;;;3.60;;
39176;SDS011;24904;52.208;21.192;2023-05-27T05:58:44;6.40;;;2.20;;
39176;SDS011;24904;52.208;21.192;2023-05-27T06:03:49;8.50;;;2.50;;
39176;SDS011;24904;52.208;21.192;2023-05-27T06:14:40;6.90;;;2.20;;
39176;SDS011;24904;52.208;21.192;2023-05-27T06:19:44;7.80;;;2.00;;
39176;SDS011;24904;52.208;21.192;2023-05-27T06:24:47;4.00;;;1.60;;
39176;SDS011;24904;52.208;21.192;2023-05-27T06:30:13;7.00;;;2.20;;
39176;SDS011;24904;52.208;21.192;2023-05-27T06:35:18;11.70;;;2.60;;
39176;SDS011;24904;52.208;21.192;2023-05-27T06:40:21;4.80;;;1.80;;
39176;SDS011;24904;52.208;21.192;2023-05-27T06:45:25;8.10;;;2.80;;
39176;SDS011;24904;52.208;21.192;2023-05-27T06:50:36;9.30;;;2.30;;
39176;SDS011;24904;52.208;21.192;2023-05-27T06:55:40;4.80;;;2.10;;
39176;SDS011;24904;52.208;21.192;2023-05-27T07:00:45;3.90;;;2.00;;
39176;SDS011;24904;52.208;21.192;2023-05-27T07:05:58;3.80;;;1.60;;
39176;SDS011;24904;52.208;21.192;2023-05-27T07:11:04;7.50;;;1.90;;
39176;SDS011;24904;52.208;21.192;2023-05-27T07:19:29;3.80;;;1.70;;
39176;SDS011;24904;52.208;21.192;2023-05-27T07:24:35;7.30;;;1.80;;
39176;SDS011;24904;52.208;21.192;2023-05-27T07:29:38;5.80;;;2.30;;
39176;SDS011;24904;52.208;21.192;2023-05-27T07:39:52;4.00;;;1.40;;
39176;SDS011;24904;52.208;21.192;2023-05-27T07:44:55;9.30;;;2.00;;
39176;SDS011;24904;52.208;21.192;2023-05-27T07:49:58;4.70;;;1.40;;
39176;SDS011;24904;52.208;21.192;2023-05-27T07:55:04;8.20;;;1.50;;
39176;SDS011;24904;52.208;21.192;2023-05-27T08:00:09;5.30;;;1.60;;
39176;SDS011;24904;52.208;21.192;2023-05-27T08:05:29;4.70;;;1.60;;
39176;SDS011;24904;52.208;21.192;2023-05-27T08:10:46;4.80;;;1.50;;
39176;SDS011;24904;52.208;21.192;2023-05-27T08:16:08;3.50;;;1.60;;
39176;SDS011;24904;52.208;21.192;2023-05-27T08:21:22;7.00;;;1.80;;
39176;SDS011;24904;52.208;21.192;2023-05-27T08:26:38;4.90;;;1.30;;
39176;SDS011;24904;52.208;21.192;2023-05-27T08:32:11;3.60;;;1.30;;
39176;SDS011;24904;52.208;21.192;2023-05-27T08:37:14;4.60;;;1.50;;
39176;SDS011;24904;52.208;21.192;2023-05-27T08:42:19;3.80;;;1.50;;
39176;SDS011;24904;52.208;21.192;2023-05-27T08:47:22;5.50;;;1.40;;
39176;SDS011;24904;52.208;21.192;2023-05-27T08:52:26;5.30;;;1.30;;
39176;SDS011;24904;52.208;21.192;2023-05-27T08:57:30;5.80;;;1.50;;
39176;SDS011;24904;52.208;21.192;2023-05-27T09:02:36;5.60;;;1.30;;
39176;SDS011;24904;52.208;21.192;2023-05-27T09:07:40;2.30;;;1.20;;
39176;SDS011;24904;52.208;21.192;2023-05-27T09:12:44;4.60;;;1.90;;
39176;SDS011;24904;52.208;21.192;2023-05-27T09:17:48;2.70;;;1.10;;
39176;SDS011;24904;52.208;21.192;2023-05-27T09:22:55;3.20;;;1.20;;
39176;SDS011;24904;52.208;21.192;2023-05-27T09:27:59;2.80;;;1.30;;
39176;SDS011;24904;52.208;21.192;2023-05-27T09:33:06;2.90;;;1.00;;
39176;SDS011;24904;52.208;21.192;2023-05-27T09:38:10;2.60;;;1.30;;
39176;SDS011;24904;52.208;21.192;2023-05-27T09:43:15;4.10;;;1.20;;
39176;SDS011;24904;52.208;21.192;2023-05-27T09:48:20;6.20;;;1.40;;
39176;SDS011;24904;52.208;21.192;2023-05-27T09:53:26;2.70;;;1.10;;
39176;SDS011;24904;52.208;21.192;2023-05-27T09:58:32;7.90;;;1.30;;
39176;SDS011;24904;52.208;21.192;2023-05-27T10:03:37;4.80;;;1.00;;
39176;SDS011;24904;52.208;21.192;2023-05-27T10:08:49;6.20;;;1.10;;
39176;SDS011;24904;52.208;21.192;2023-05-27T10:14:06;8.30;;;1.10;;
39176;SDS011;24904;52.208;21.192;2023-05-27T10:19:25;6.00;;;1.20;;
39176;SDS011;24904;52.208;21.192;2023-05-27T10:24:36;7.00;;;1.40;;
39176;SDS011;24904;52.208;21.192;2023-05-27T10:29:56;3.70;;;1.50;;
39176;SDS011;24904;52.208;21.192;2023-05-27T10:35:01;3.40;;;1.50;;
39176;SDS011;24904;52.208;21.192;2023-05-27T10:40:08;3.10;;;1.50;;
39176;SDS011;24904;52.208;21.192;2023-05-27T10:45:20;6.60;;;1.20;;
39176;SDS011;24904;52.208;21.192;2023-05-27T10:50:39;2.60;;;1.20;;
39176;SDS011;24904;52.208;21.192;2023-05-27T10:55:57;2.70;;;1.20;;
39176;SDS011;24904;52.208;21.192;2023-05-27T11:01:15;6.20;;;1.60;;
39176;SDS011;24904;52.208;21.192;2023-05-27T11:06:36;6.90;;;1.90;;
39176;SDS011;24904;52.208;21.192;2023-05-27T11:12:00;8.70;;;1.60;;
39176;SDS011;24904;52.208;21.192;2023-05-27T11:17:36;4.20;;;1.20;;
39176;SDS011;24904;52.208;21.192;2023-05-27T11:23:00;4.90;;;1.40;;
39176;SDS011;24904;52.208;21.192;2023-05-27T11:28:21;2.00;;;1.00;;
39176;SDS011;24904;52.208;21.192;2023-05-27T11:33:48;10.10;;;1.70;;
39176;SDS011;24904;52.208;21.192;2023-05-27T11:39:09;4.50;;;1.30;;
39176;SDS011;24904;52.208;21.192;2023-05-27T11:44:27;5.50;;;1.80;;
39176;SDS011;24904;52.208;21.192;2023-05-27T11:50:05;6.10;;;1.30;;
39176;SDS011;24904;52.208;21.192;2023-05-27T11:55:33;2.60;;;1.20;;
39176;SDS011;24904;52.208;21.192;2023-05-27T12:01:07;4.50;;;1.20;;
39176;SDS011;24904;52.208;21.192;2023-05-27T12:06:34;6.30;;;1.20;;
39176;SDS011;24904;52.208;21.192;2023-05-27T12:12:08;6.20;;;1.30;;
39176;SDS011;24904;52.208;21.192;2023-05-27T12:17:34;7.20;;;1.20;;
39176;SDS011;24904;52.208;21.192;2023-05-27T12:22:44;2.90;;;1.50;;
39176;SDS011;24904;52.208;21.192;2023-05-27T12:27:50;4.70;;;1.30;;
39176;SDS011;24904;52.208;21.192;2023-05-27T12:32:53;3.30;;;1.50;;
39176;SDS011;24904;52.208;21.192;2023-05-27T12:37:56;2.20;;;1.20;;
39176;SDS011;24904;52.208;21.192;2023-05-27T12:43:00;6.80;;;1.40;;
39176;SDS011;24904;52.208;21.192;2023-05-27T12:48:05;3.30;;;1.80;;
39176;SDS011;24904;52.208;21.192;2023-05-27T12:53:08;6.70;;;1.30;;
39176;SDS011;24904;52.208;21.192;2023-05-27T12:58:11;3.00;;;1.20;;
39176;SDS011;24904;52.208;21.192;2023-05-27T13:03:14;2.70;;;1.20;;
39176;SDS011;24904;52.208;21.192;2023-05-27T13:08:18;12.50;;;4.30;;
39176;SDS011;24904;52.208;21.192;2023-05-27T13:13:22;4.20;;;1.90;;
39176;SDS011;24904;52.208;21.192;2023-05-27T13:18:25;6.70;;;1.50;;
39176;SDS011;24904;52.208;21.192;2023-05-27T13:23:28;5.20;;;1.20;;
39176;SDS011;24904;52.208;21.192;2023-05-27T13:28:31;4.90;;;1.20;;
39176;SDS011;24904;52.208;21.192;2023-05-27T13:33:34;8.60;;;1.30;;
39176;SDS011;24904;52.208;21.192;2023-05-27T13:38:38;2.40;;;1.10;;
39176;SDS011;24904;52.208;21.192;2023-05-27T13:43:41;5.70;;;2.20;;
39176;SDS011;24904;52.208;21.192;2023-05-27T13:48:44;11.00;;;2.30;;
39176;SDS011;24904;52.208;21.192;2023-05-27T13:53:48;4.40;;;1.90;;
39176;SDS011;24904;52.208;21.192;2023-05-27T13:58:52;14.40;;;2.30;;
39176;SDS011;24904;52.208;21.192;2023-05-27T14:03:55;4.80;;;1.20;;
39176;SDS011;24904;52.208;21.192;2023-05-27T14:09:00;4.60;;;1.40;;
39176;SDS011;24904;52.208;21.192;2023-05-27T14:14:04;7.00;;;1.20;;
39176;SDS011;24904;52.208;21.192;2023-05-27T14:19:07;3.10;;;1.20;;
39176;SDS011;24904;52.208;21.192;2023-05-27T14:24:22;3.30;;;1.20;;
39176;SDS011;24904;52.208;21.192;2023-05-27T14:29:46;3.70;;;1.10;;
39176;SDS011;24904;52.208;21.192;2023-05-27T14:35:17;3.40;;;0.90;;
39176;SDS011;24904;52.208;21.192;2023-05-27T14:40:40;9.10;;;1.40;;
39176;SDS011;24904;52.208;21.192;2023-05-27T14:46:06;2.70;;;1.10;;
39176;SDS011;24904;52.208;21.192;2023-05-27T14:51:34;4.70;;;1.20;;
39176;SDS011;24904;52.208;21.192;2023-05-27T14:56:56;3.60;;;1.30;;
39176;SDS011;24904;52.208;21.192;2023-05-27T15:02:19;4.90;;;1.00;;
39176;SDS011;24904;52.208;21.192;2023-05-27T15:07:49;5.50;;;1.00;;
39176;SDS011;24904;52.208;21.192;2023-05-27T15:13:17;2.70;;;0.90;;
39176;SDS011;24904;52.208;21.192;2023-05-27T15:18:48;5.80;;;1.30;;
39176;SDS011;24904;52.208;21.192;2023-05-27T15:24:12;7.80;;;1.30;;
39176;SDS011;24904;52.208;21.192;2023-05-27T15:29:44;6.50;;;1.30;;
39176;SDS011;24904;52.208;21.192;2023-05-27T15:35:01;6.90;;;1.10;;
39176;SDS011;24904;52.208;21.192;2023-05-27T15:40:26;7.60;;;1.50;;
39176;SDS011;24904;52.208;21.192;2023-05-27T15:45:55;2.90;;;0.90;;
39176;SDS011;24904;52.208;21.192;2023-05-27T15:51:17;1.90;;;0.80;;
39176;SDS011;24904;52.208;21.192;2023-05-27T15:56:46;3.10;;;1.20;;
39176;SDS011;24904;52.208;21.192;2023-05-27T16:02:09;5.70;;;1.30;;
39176;SDS011;24904;52.208;21.192;2023-05-27T16:07:33;11.70;;;1.10;;
39176;SDS011;24904;52.208;21.192;2023-05-27T16:12:58;4.30;;;1.40;;
39176;SDS011;24904;52.208;21.192;2023-05-27T16:18:21;5.90;;;2.00;;
39176;SDS011;24904;52.208;21.192;2023-05-27T16:23:38;2.70;;;0.80;;
39176;SDS011;24904;52.208;21.192;2023-05-27T16:28:58;2.20;;;1.00;;
39176;SDS011;24904;52.208;21.192;2023-05-27T16:45:04;4.60;;;1.00;;
39176;SDS011;24904;52.208;21.192;2023-05-27T16:50:21;3.60;;;1.30;;
39176;SDS011;24904;52.208;21.192;2023-05-27T16:55:40;7.30;;;1.20;;
39176;SDS011;24904;52.208;21.192;2023-05-27T17:00:58;2.00;;;0.90;;
39176;SDS011;24904;52.208;21.192;2023-05-27T17:06:12;3.90;;;1.10;;
39176;SDS011;24904;52.208;21.192;2023-05-27T17:11:23;3.90;;;1.20;;
39176;SDS011;24904;52.208;21.192;2023-05-27T17:16:34;2.50;;;1.10;;
39176;SDS011;24904;52.208;21.192;2023-05-27T17:21:42;2.10;;;1.40;;
39176;SDS011;24904;52.208;21.192;2023-05-27T17:26:50;5.90;;;1.30;;
39176;SDS011;24904;52.208;21.192;2023-05-27T17:32:02;1.80;;;0.90;;
39176;SDS011;24904;52.208;21.192;2023-05-27T17:37:08;4.80;;;1.40;;
39176;SDS011;24904;52.208;21.192;2023-05-27T17:42:13;5.10;;;1.10;;
39176;SDS011;24904;52.208;21.192;2023-05-27T17:47:20;5.00;;;2.10;;
39176;SDS011;24904;52.208;21.192;2023-05-27T17:52:27;7.60;;;1.50;;
39176;SDS011;24904;52.208;21.192;2023-05-27T17:57:35;7.90;;;2.00;;
39176;SDS011;24904;52.208;21.192;2023-05-27T18:02:42;3.10;;;1.40;;
39176;SDS011;24904;52.208;21.192;2023-05-27T18:07:48;6.20;;;1.70;;
39176;SDS011;24904;52.208;21.192;2023-05-27T18:12:53;9.30;;;1.70;;
39176;SDS011;24904;52.208;21.192;2023-05-27T18:17:59;6.60;;;1.50;;
39176;SDS011;24904;52.208;21.192;2023-05-27T18:23:05;3.80;;;1.60;;
39176;SDS011;24904;52.208;21.192;2023-05-27T18:28:12;9.90;;;1.90;;
39176;SDS011;24904;52.208;21.192;2023-05-27T18:33:18;7.10;;;1.40;;
39176;SDS011;24904;52.208;21.192;2023-05-27T18:38:24;7.60;;;1.50;;
39176;SDS011;24904;52.208;21.192;2023-05-27T18:43:30;4.70;;;2.30;;
39176;SDS011;24904;52.208;21.192;2023-05-27T18:48:37;6.90;;;2.10;;
39176;SDS011;24904;52.208;21.192;2023-05-27T18:53:43;6.40;;;2.40;;
39176;SDS011;24904;52.208;21.192;2023-05-27T18:58:49;12.90;;;2.70;;
39176;SDS011;24904;52.208;21.192;2023-05-27T19:04:15;4.20;;;2.30;;
39176;SDS011;24904;52.208;21.192;2023-05-27T19:14:29;6.40;;;2.70;;
39176;SDS011;24904;52.208;21.192;2023-05-27T19:19:36;7.60;;;2.50;;
39176;SDS011;24904;52.208;21.192;2023-05-27T19:24:43;7.00;;;2.80;;
39176;SDS011;24904;52.208;21.192;2023-05-27T19:29:49;10.10;;;4.20;;
39176;SDS011;24904;52.208;21.192;2023-05-27T19:36:09;10.40;;;4.10;;
39176;SDS011;24904;52.208;21.192;2023-05-27T19:42:28;8.60;;;4.30;;
39176;SDS011;24904;52.208;21.192;2023-05-27T19:48:58;12.80;;;6.20;;
39176;SDS011;24904;52.208;21.192;2023-05-27T19:55:29;13.20;;;8.80;;
39176;SDS011;24904;52.208;21.192;2023-05-27T20:02:01;16.40;;;10.10;;
39176;SDS011;24904;52.208;21.192;2023-05-27T20:08:36;20.40;;;11.60;;
39176;SDS011;24904;52.208;21.192;2023-05-27T20:15:09;20.20;;;12.00;;
39176;SDS011;24904;52.208;21.192;2023-05-27T20:21:19;19.50;;;14.40;;
39176;SDS011;24904;52.208;21.192;2023-05-27T20:27:46;25.30;;;16.50;;
39176;SDS011;24904;52.208;21.192;2023-05-27T20:34:12;32.80;;;19.50;;
39176;SDS011;24904;52.208;21.192;2023-05-27T20:39:43;27.30;;;18.30;;
39176;SDS011;24904;52.208;21.192;2023-05-27T20:45:13;27.00;;;18.60;;
39176;SDS011;24904;52.208;21.192;2023-05-27T20:50:50;24.50;;;16.50;;
39176;SDS011;24904;52.208;21.192;2023-05-27T20:56:58;20.60;;;14.20;;
39176;SDS011;24904;52.208;21.192;2023-05-27T21:02:49;15.70;;;10.60;;
39176;SDS011;24904;52.208;21.192;2023-05-27T21:08:17;18.30;;;9.90;;
39176;SDS011;24904;52.208;21.192;2023-05-27T21:14:06;16.30;;;9.20;;
39176;SDS011;24904;52.208;21.192;2023-05-27T21:20:23;14.80;;;7.60;;
39176;SDS011;24904;52.208;21.192;2023-05-27T21:26:15;12.80;;;6.90;;
39176;SDS011;24904;52.208;21.192;2023-05-27T21:32:41;13.00;;;6.60;;
39176;SDS011;24904;52.208;21.192;2023-05-27T21:39:13;12.90;;;5.40;;
39176;SDS011;24904;52.208;21.192;2023-05-27T21:45:08;15.20;;;5.20;;
39176;SDS011;24904;52.208;21.192;2023-05-27T21:50:35;13.20;;;4.60;;
39176;SDS011;24904;52.208;21.192;2023-05-27T21:55:40;11.40;;;4.70;;
39176;SDS011;24904;52.208;21.192;2023-05-27T22:00:45;13.50;;;7.10;;
39176;SDS011;24904;52.208;21.192;2023-05-27T22:05:50;13.10;;;6.90;;
39176;SDS011;24904;52.208;21.192;2023-05-27T22:10:55;12.10;;;6.20;;
39176;SDS011;24904;52.208;21.192;2023-05-27T22:16:00;11.10;;;5.50;;
39176;SDS011;24904;52.208;21.192;2023-05-27T22:21:06;15.90;;;5.10;;
39176;SDS011;24904;52.208;21.192;2023-05-27T22:26:12;12.00;;;5.00;;
39176;SDS011;24904;52.208;21.192;2023-05-27T22:31:17;11.40;;;4.60;;
39176;SDS011;24904;52.208;21.192;2023-05-27T22:36:22;16.00;;;5.70;;
39176;SDS011;24904;52.208;21.192;2023-05-27T22:41:27;12.30;;;5.40;;
39176;SDS011;24904;52.208;21.192;2023-05-27T22:46:32;16.70;;;5.90;;
39176;SDS011;24904;52.208;21.192;2023-05-27T22:51:37;10.40;;;5.80;;
39176;SDS011;24904;52.208;21.192;2023-05-27T22:56:42;10.30;;;5.70;;
39176;SDS011;24904;52.208;21.192;2023-05-27T23:09:53;14.40;;;6.70;;
39176;SDS011;24904;52.208;21.192;2023-05-27T23:14:58;12.10;;;6.40;;
39176;SDS011;24904;52.208;21.192;2023-05-27T23:20:04;11.30;;;6.20;;
39176;SDS011;24904;52.208;21.192;2023-05-27T23:25:12;12.40;;;6.30;;
39176;SDS011;24904;52.208;21.192;2023-05-27T23:30:17;13.10;;;6.60;;
39176;SDS011;24904;52.208;21.192;2023-05-27T23:35:22;21.70;;;7.10;;
39176;SDS011;24904;52.208;21.192;2023-05-27T23:40:28;15.40;;;8.40;;
39176;SDS011;24904;52.208;21.192;2023-05-27T23:45:34;15.30;;;8.50;;
39176;SDS011;24904;52.208;21.192;2023-05-27T23:50:39;16.70;;;7.40;;
39176;SDS011;24904;52.208;21.192;2023-05-27T23:55:45;16.10;;;7.30;;
